sensor_id;sensor_type;location;lat;lon;timestamp;P1;durP1;ratioP1;P2;durP2;ratioP2
46084;SDS011;31823;47.032;8.310;2022-08-01T00:00:10;5.57;;;4.43;;
46084;SDS011;31823;47.032;8.310;2022-08-01T00:02:37;7.90;;;4.68;;
46084;SDS011;31823;47.032;8.310;2022-08-01T00:05:03;9.93;;;5.20;;
46084;SDS011;31823;47.032;8.310;2022-08-01T00:07:31;11.88;;;4.82;;
46084;SDS011;31823;47.032;8.310;2022-08-01T00:09:57;10.05;;;4.97;;
46084;SDS011;31823;47.032;8.310;2022-08-01T00:12:22;8.43;;;4.90;;
46084;SDS011;31823;47.032;8.310;2022-08-01T00:14:48;8.38;;;5.00;;
46084;SDS011;31823;47.032;8.310;2022-08-01T00:17:14;8.55;;;5.00;;
46084;SDS011;31823;47.032;8.310;2022-08-01T00:19:41;8.18;;;4.75;;
46084;SDS011;31823;47.032;8.310;2022-08-01T00:22:07;8.38;;;4.90;;
46084;SDS011;31823;47.032;8.310;2022-08-01T00:24:33;8.27;;;4.50;;
46084;SDS011;31823;47.032;8.310;2022-08-01T00:26:58;9.98;;;4.97;;
46084;SDS011;31823;47.032;8.310;2022-08-01T00:29:24;9.90;;;5.10;;
46084;SDS011;31823;47.032;8.310;2022-08-01T00:31:50;7.55;;;5.38;;
46084;SDS011;31823;47.032;8.310;2022-08-01T00:34:15;8.70;;;5.35;;
46084;SDS011;31823;47.032;8.310;2022-08-01T00:36:41;9.57;;;5.70;;
46084;SDS011;31823;47.032;8.310;2022-08-01T00:39:07;9.77;;;5.57;;
46084;SDS011;31823;47.032;8.310;2022-08-01T00:41:33;6.28;;;5.13;;
46084;SDS011;31823;47.032;8.310;2022-08-01T00:44:01;6.55;;;4.80;;
46084;SDS011;31823;47.032;8.310;2022-08-01T00:46:28;8.60;;;6.05;;
46084;SDS011;31823;47.032;8.310;2022-08-01T00:48:54;9.93;;;6.38;;
46084;SDS011;31823;47.032;8.310;2022-08-01T00:51:20;11.95;;;5.88;;
46084;SDS011;31823;47.032;8.310;2022-08-01T00:53:47;7.47;;;5.72;;
46084;SDS011;31823;47.032;8.310;2022-08-01T00:56:15;6.30;;;5.43;;
46084;SDS011;31823;47.032;8.310;2022-08-01T00:58:41;8.98;;;5.57;;
46084;SDS011;31823;47.032;8.310;2022-08-01T01:01:07;7.85;;;5.68;;
46084;SDS011;31823;47.032;8.310;2022-08-01T01:03:33;5.82;;;5.13;;
46084;SDS011;31823;47.032;8.310;2022-08-01T01:08:33;10.07;;;4.70;;
46084;SDS011;31823;47.032;8.310;2022-08-01T01:11:06;8.25;;;4.78;;
46084;SDS011;31823;47.032;8.310;2022-08-01T01:13:41;10.10;;;4.95;;
46084;SDS011;31823;47.032;8.310;2022-08-01T01:16:27;6.22;;;4.68;;
46084;SDS011;31823;47.032;8.310;2022-08-01T01:18:56;7.95;;;5.85;;
46084;SDS011;31823;47.032;8.310;2022-08-01T01:21:40;8.23;;;5.43;;
46084;SDS011;31823;47.032;8.310;2022-08-01T01:30:01;9.85;;;4.95;;
46084;SDS011;31823;47.032;8.310;2022-08-01T01:32:42;6.10;;;4.32;;
46084;SDS011;31823;47.032;8.310;2022-08-01T01:35:15;6.43;;;4.78;;
46084;SDS011;31823;47.032;8.310;2022-08-01T01:37:46;8.68;;;4.63;;
46084;SDS011;31823;47.032;8.310;2022-08-01T01:40:15;7.35;;;5.30;;
46084;SDS011;31823;47.032;8.310;2022-08-01T01:42:42;8.18;;;5.18;;
46084;SDS011;31823;47.032;8.310;2022-08-01T01:45:09;5.40;;;4.80;;
46084;SDS011;31823;47.032;8.310;2022-08-01T01:47:36;5.65;;;5.03;;
46084;SDS011;31823;47.032;8.310;2022-08-01T01:50:03;9.02;;;4.93;;
46084;SDS011;31823;47.032;8.310;2022-08-01T01:52:31;6.80;;;4.97;;
46084;SDS011;31823;47.032;8.310;2022-08-01T01:54:57;6.22;;;4.57;;
46084;SDS011;31823;47.032;8.310;2022-08-01T01:57:24;5.63;;;5.00;;
46084;SDS011;31823;47.032;8.310;2022-08-01T01:59:52;6.70;;;4.32;;
46084;SDS011;31823;47.032;8.310;2022-08-01T02:02:19;6.07;;;4.68;;
46084;SDS011;31823;47.032;8.310;2022-08-01T02:04:48;6.85;;;5.32;;
46084;SDS011;31823;47.032;8.310;2022-08-01T02:07:17;6.45;;;4.88;;
46084;SDS011;31823;47.032;8.310;2022-08-01T02:09:46;5.63;;;4.82;;
46084;SDS011;31823;47.032;8.310;2022-08-01T02:12:13;6.80;;;5.13;;
46084;SDS011;31823;47.032;8.310;2022-08-01T02:14:41;8.27;;;5.30;;
46084;SDS011;31823;47.032;8.310;2022-08-01T02:17:10;7.85;;;5.10;;
46084;SDS011;31823;47.032;8.310;2022-08-01T02:19:37;8.48;;;5.28;;
46084;SDS011;31823;47.032;8.310;2022-08-01T02:22:10;6.22;;;4.90;;
46084;SDS011;31823;47.032;8.310;2022-08-01T02:27:10;7.78;;;4.88;;
46084;SDS011;31823;47.032;8.310;2022-08-01T02:29:41;8.70;;;5.28;;
46084;SDS011;31823;47.032;8.310;2022-08-01T02:32:16;10.55;;;5.00;;
46084;SDS011;31823;47.032;8.310;2022-08-01T02:34:48;6.97;;;5.13;;
46084;SDS011;31823;47.032;8.310;2022-08-01T02:37:15;10.45;;;4.75;;
46084;SDS011;31823;47.032;8.310;2022-08-01T02:39:43;7.28;;;4.80;;
46084;SDS011;31823;47.032;8.310;2022-08-01T02:42:15;7.20;;;4.47;;
46084;SDS011;31823;47.032;8.310;2022-08-01T02:44:44;6.65;;;4.90;;
46084;SDS011;31823;47.032;8.310;2022-08-01T02:47:12;5.80;;;5.22;;
46084;SDS011;31823;47.032;8.310;2022-08-01T02:49:41;10.02;;;4.97;;
46084;SDS011;31823;47.032;8.310;2022-08-01T02:52:10;5.65;;;4.93;;
46084;SDS011;31823;47.032;8.310;2022-08-01T02:54:38;10.45;;;5.22;;
46084;SDS011;31823;47.032;8.310;2022-08-01T02:57:07;8.80;;;5.63;;
46084;SDS011;31823;47.032;8.310;2022-08-01T02:59:34;13.20;;;5.35;;
46084;SDS011;31823;47.032;8.310;2022-08-01T03:02:03;8.10;;;4.90;;
46084;SDS011;31823;47.032;8.310;2022-08-01T03:04:31;6.88;;;5.28;;
46084;SDS011;31823;47.032;8.310;2022-08-01T03:06:59;7.95;;;5.57;;
46084;SDS011;31823;47.032;8.310;2022-08-01T03:09:27;9.23;;;5.50;;
46084;SDS011;31823;47.032;8.310;2022-08-01T03:11:57;6.80;;;5.10;;
46084;SDS011;31823;47.032;8.310;2022-08-01T03:14:26;5.82;;;4.75;;
46084;SDS011;31823;47.032;8.310;2022-08-01T03:16:55;7.18;;;4.40;;
46084;SDS011;31823;47.032;8.310;2022-08-01T03:19:22;9.95;;;5.20;;
46084;SDS011;31823;47.032;8.310;2022-08-01T03:21:51;9.45;;;4.78;;
46084;SDS011;31823;47.032;8.310;2022-08-01T03:24:17;8.75;;;4.50;;
46084;SDS011;31823;47.032;8.310;2022-08-01T03:26:44;8.00;;;5.25;;
46084;SDS011;31823;47.032;8.310;2022-08-01T03:29:13;7.28;;;5.20;;
46084;SDS011;31823;47.032;8.310;2022-08-01T03:31:45;7.20;;;4.20;;
46084;SDS011;31823;47.032;8.310;2022-08-01T03:34:13;7.38;;;5.22;;
46084;SDS011;31823;47.032;8.310;2022-08-01T03:36:43;8.63;;;5.38;;
46084;SDS011;31823;47.032;8.310;2022-08-01T03:39:12;10.38;;;5.57;;
46084;SDS011;31823;47.032;8.310;2022-08-01T03:41:40;5.72;;;5.10;;
46084;SDS011;31823;47.032;8.310;2022-08-01T03:44:12;6.05;;;5.32;;
46084;SDS011;31823;47.032;8.310;2022-08-01T03:46:42;10.23;;;5.03;;
46084;SDS011;31823;47.032;8.310;2022-08-01T03:49:14;7.20;;;5.60;;
46084;SDS011;31823;47.032;8.310;2022-08-01T03:51:45;7.88;;;5.57;;
46084;SDS011;31823;47.032;8.310;2022-08-01T03:54:14;14.15;;;6.07;;
46084;SDS011;31823;47.032;8.310;2022-08-01T03:56:45;6.88;;;5.75;;
46084;SDS011;31823;47.032;8.310;2022-08-01T03:59:14;8.05;;;5.10;;
46084;SDS011;31823;47.032;8.310;2022-08-01T04:01:41;5.78;;;5.18;;
46084;SDS011;31823;47.032;8.310;2022-08-01T04:04:09;7.15;;;5.90;;
46084;SDS011;31823;47.032;8.310;2022-08-01T04:06:38;7.30;;;5.53;;
46084;SDS011;31823;47.032;8.310;2022-08-01T04:09:04;11.25;;;6.25;;
46084;SDS011;31823;47.032;8.310;2022-08-01T04:11:32;7.72;;;5.43;;
46084;SDS011;31823;47.032;8.310;2022-08-01T04:13:58;6.15;;;5.25;;
46084;SDS011;31823;47.032;8.310;2022-08-01T04:16:23;8.93;;;5.88;;
46084;SDS011;31823;47.032;8.310;2022-08-01T04:18:49;9.52;;;5.43;;
46084;SDS011;31823;47.032;8.310;2022-08-01T04:21:17;7.68;;;5.97;;
46084;SDS011;31823;47.032;8.310;2022-08-01T04:23:47;8.20;;;5.20;;
46084;SDS011;31823;47.032;8.310;2022-08-01T04:26:16;7.22;;;6.50;;
46084;SDS011;31823;47.032;8.310;2022-08-01T04:28:43;11.32;;;5.70;;
46084;SDS011;31823;47.032;8.310;2022-08-01T04:31:11;7.32;;;5.32;;
46084;SDS011;31823;47.032;8.310;2022-08-01T04:33:40;8.63;;;5.60;;
46084;SDS011;31823;47.032;8.310;2022-08-01T04:36:10;7.70;;;5.93;;
46084;SDS011;31823;47.032;8.310;2022-08-01T04:38:40;9.93;;;5.85;;
46084;SDS011;31823;47.032;8.310;2022-08-01T04:41:11;9.35;;;6.30;;
46084;SDS011;31823;47.032;8.310;2022-08-01T04:43:38;6.95;;;5.80;;
46084;SDS011;31823;47.032;8.310;2022-08-01T04:46:06;8.27;;;5.88;;
46084;SDS011;31823;47.032;8.310;2022-08-01T04:48:37;9.63;;;6.15;;
46084;SDS011;31823;47.032;8.310;2022-08-01T04:51:03;13.85;;;6.65;;
46084;SDS011;31823;47.032;8.310;2022-08-01T04:53:36;8.93;;;5.70;;
46084;SDS011;31823;47.032;8.310;2022-08-01T04:56:01;7.78;;;5.25;;
46084;SDS011;31823;47.032;8.310;2022-08-01T04:58:27;11.30;;;5.95;;
46084;SDS011;31823;47.032;8.310;2022-08-01T05:00:53;6.90;;;5.88;;
46084;SDS011;31823;47.032;8.310;2022-08-01T05:03:18;6.25;;;5.07;;
46084;SDS011;31823;47.032;8.310;2022-08-01T05:05:45;5.32;;;4.82;;
46084;SDS011;31823;47.032;8.310;2022-08-01T05:08:11;6.88;;;4.63;;
46084;SDS011;31823;47.032;8.310;2022-08-01T05:10:37;7.03;;;5.68;;
46084;SDS011;31823;47.032;8.310;2022-08-01T05:13:02;8.60;;;5.40;;
46084;SDS011;31823;47.032;8.310;2022-08-01T05:15:28;11.98;;;5.72;;
46084;SDS011;31823;47.032;8.310;2022-08-01T05:17:54;8.77;;;5.35;;
46084;SDS011;31823;47.032;8.310;2022-08-01T05:20:20;6.00;;;5.25;;
46084;SDS011;31823;47.032;8.310;2022-08-01T05:22:46;5.93;;;5.32;;
46084;SDS011;31823;47.032;8.310;2022-08-01T05:25:12;6.32;;;5.32;;
46084;SDS011;31823;47.032;8.310;2022-08-01T05:27:38;6.40;;;5.55;;
46084;SDS011;31823;47.032;8.310;2022-08-01T05:30:08;7.95;;;5.80;;
46084;SDS011;31823;47.032;8.310;2022-08-01T05:32:35;6.70;;;6.00;;
46084;SDS011;31823;47.032;8.310;2022-08-01T05:35:00;9.73;;;6.40;;
46084;SDS011;31823;47.032;8.310;2022-08-01T05:37:26;8.55;;;5.90;;
46084;SDS011;31823;47.032;8.310;2022-08-01T05:39:52;13.18;;;5.72;;
46084;SDS011;31823;47.032;8.310;2022-08-01T05:42:18;11.13;;;6.32;;
46084;SDS011;31823;47.032;8.310;2022-08-01T05:44:43;10.52;;;6.00;;
46084;SDS011;31823;47.032;8.310;2022-08-01T05:47:09;7.18;;;5.90;;
46084;SDS011;31823;47.032;8.310;2022-08-01T05:49:35;6.03;;;5.28;;
46084;SDS011;31823;47.032;8.310;2022-08-01T05:52:00;8.75;;;5.95;;
46084;SDS011;31823;47.032;8.310;2022-08-01T05:54:26;11.30;;;5.90;;
46084;SDS011;31823;47.032;8.310;2022-08-01T05:56:52;9.15;;;6.03;;
46084;SDS011;31823;47.032;8.310;2022-08-01T05:59:19;9.00;;;6.75;;
46084;SDS011;31823;47.032;8.310;2022-08-01T06:01:45;7.20;;;5.80;;
46084;SDS011;31823;47.032;8.310;2022-08-01T06:04:11;10.60;;;5.95;;
46084;SDS011;31823;47.032;8.310;2022-08-01T06:06:36;9.57;;;6.43;;
46084;SDS011;31823;47.032;8.310;2022-08-01T06:09:02;11.75;;;6.72;;
46084;SDS011;31823;47.032;8.310;2022-08-01T06:11:28;7.30;;;6.53;;
46084;SDS011;31823;47.032;8.310;2022-08-01T06:13:53;7.43;;;6.05;;
46084;SDS011;31823;47.032;8.310;2022-08-01T06:16:19;8.13;;;6.10;;
46084;SDS011;31823;47.032;8.310;2022-08-01T06:18:45;7.60;;;6.03;;
46084;SDS011;31823;47.032;8.310;2022-08-01T06:21:11;11.80;;;6.35;;
46084;SDS011;31823;47.032;8.310;2022-08-01T06:23:36;11.10;;;5.57;;
46084;SDS011;31823;47.032;8.310;2022-08-01T06:26:02;10.88;;;5.88;;
46084;SDS011;31823;47.032;8.310;2022-08-01T06:28:28;6.05;;;5.50;;
46084;SDS011;31823;47.032;8.310;2022-08-01T06:30:54;7.38;;;5.28;;
46084;SDS011;31823;47.032;8.310;2022-08-01T06:33:20;6.57;;;5.72;;
46084;SDS011;31823;47.032;8.310;2022-08-01T06:35:46;8.75;;;5.75;;
46084;SDS011;31823;47.032;8.310;2022-08-01T06:38:12;7.32;;;5.53;;
46084;SDS011;31823;47.032;8.310;2022-08-01T06:40:38;12.00;;;5.28;;
46084;SDS011;31823;47.032;8.310;2022-08-01T06:43:04;8.18;;;5.00;;
46084;SDS011;31823;47.032;8.310;2022-08-01T06:45:31;6.05;;;5.13;;
46084;SDS011;31823;47.032;8.310;2022-08-01T06:47:56;7.50;;;5.97;;
46084;SDS011;31823;47.032;8.310;2022-08-01T06:50:22;9.90;;;5.30;;
46084;SDS011;31823;47.032;8.310;2022-08-01T06:52:48;6.05;;;5.45;;
46084;SDS011;31823;47.032;8.310;2022-08-01T06:55:14;6.57;;;4.85;;
46084;SDS011;31823;47.032;8.310;2022-08-01T06:57:46;6.13;;;4.60;;
46084;SDS011;31823;47.032;8.310;2022-08-01T07:00:13;5.60;;;4.65;;
46084;SDS011;31823;47.032;8.310;2022-08-01T07:02:41;6.80;;;4.75;;
46084;SDS011;31823;47.032;8.310;2022-08-01T07:05:07;5.72;;;4.72;;
46084;SDS011;31823;47.032;8.310;2022-08-01T07:07:34;6.28;;;4.90;;
46084;SDS011;31823;47.032;8.310;2022-08-01T07:09:59;7.07;;;4.60;;
46084;SDS011;31823;47.032;8.310;2022-08-01T07:12:25;6.40;;;4.88;;
46084;SDS011;31823;47.032;8.310;2022-08-01T07:14:51;5.10;;;4.60;;
46084;SDS011;31823;47.032;8.310;2022-08-01T07:17:16;6.93;;;4.50;;
46084;SDS011;31823;47.032;8.310;2022-08-01T07:19:42;6.90;;;5.10;;
46084;SDS011;31823;47.032;8.310;2022-08-01T07:22:08;5.78;;;5.15;;
46084;SDS011;31823;47.032;8.310;2022-08-01T07:24:34;4.80;;;4.40;;
46084;SDS011;31823;47.032;8.310;2022-08-01T07:26:59;7.30;;;4.78;;
46084;SDS011;31823;47.032;8.310;2022-08-01T07:29:25;5.60;;;4.07;;
46084;SDS011;31823;47.032;8.310;2022-08-01T07:31:55;4.88;;;4.35;;
46084;SDS011;31823;47.032;8.310;2022-08-01T07:34:23;5.38;;;4.88;;
46084;SDS011;31823;47.032;8.310;2022-08-01T07:36:50;6.22;;;4.50;;
46084;SDS011;31823;47.032;8.310;2022-08-01T07:39:16;5.35;;;4.57;;
46084;SDS011;31823;47.032;8.310;2022-08-01T07:41:42;4.45;;;4.05;;
46084;SDS011;31823;47.032;8.310;2022-08-01T07:44:07;6.38;;;4.70;;
46084;SDS011;31823;47.032;8.310;2022-08-01T07:46:33;4.63;;;4.22;;
46084;SDS011;31823;47.032;8.310;2022-08-01T07:48:59;4.97;;;4.40;;
46084;SDS011;31823;47.032;8.310;2022-08-01T07:51:24;5.00;;;4.10;;
46084;SDS011;31823;47.032;8.310;2022-08-01T07:53:50;5.40;;;4.35;;
46084;SDS011;31823;47.032;8.310;2022-08-01T07:56:16;6.68;;;4.38;;
46084;SDS011;31823;47.032;8.310;2022-08-01T07:58:42;4.70;;;4.03;;
46084;SDS011;31823;47.032;8.310;2022-08-01T08:01:07;5.15;;;4.18;;
46084;SDS011;31823;47.032;8.310;2022-08-01T08:03:33;6.28;;;4.45;;
46084;SDS011;31823;47.032;8.310;2022-08-01T08:05:59;4.55;;;4.13;;
46084;SDS011;31823;47.032;8.310;2022-08-01T08:08:24;6.82;;;4.03;;
46084;SDS011;31823;47.032;8.310;2022-08-01T08:10:52;4.65;;;4.25;;
46084;SDS011;31823;47.032;8.310;2022-08-01T08:13:18;4.53;;;4.13;;
46084;SDS011;31823;47.032;8.310;2022-08-01T08:15:43;4.78;;;4.35;;
46084;SDS011;31823;47.032;8.310;2022-08-01T08:18:09;6.20;;;3.95;;
46084;SDS011;31823;47.032;8.310;2022-08-01T08:20:35;4.40;;;4.00;;
46084;SDS011;31823;47.032;8.310;2022-08-01T08:23:00;3.67;;;3.38;;
46084;SDS011;31823;47.032;8.310;2022-08-01T08:25:26;4.40;;;3.97;;
46084;SDS011;31823;47.032;8.310;2022-08-01T08:27:53;4.88;;;3.90;;
46084;SDS011;31823;47.032;8.310;2022-08-01T08:30:19;4.82;;;3.80;;
46084;SDS011;31823;47.032;8.310;2022-08-01T08:32:45;5.55;;;3.78;;
46084;SDS011;31823;47.032;8.310;2022-08-01T08:35:11;9.30;;;4.32;;
46084;SDS011;31823;47.032;8.310;2022-08-01T08:37:37;8.02;;;3.67;;
46084;SDS011;31823;47.032;8.310;2022-08-01T08:40:03;5.30;;;3.50;;
46084;SDS011;31823;47.032;8.310;2022-08-01T08:42:30;5.03;;;4.20;;
46084;SDS011;31823;47.032;8.310;2022-08-01T08:44:55;4.60;;;3.50;;
46084;SDS011;31823;47.032;8.310;2022-08-01T08:47:22;3.50;;;3.20;;
46084;SDS011;31823;47.032;8.310;2022-08-01T08:49:51;4.15;;;3.55;;
46084;SDS011;31823;47.032;8.310;2022-08-01T08:52:18;5.05;;;3.15;;
46084;SDS011;31823;47.032;8.310;2022-08-01T08:54:45;4.22;;;3.63;;
46084;SDS011;31823;47.032;8.310;2022-08-01T08:57:13;4.57;;;3.42;;
46084;SDS011;31823;47.032;8.310;2022-08-01T08:59:39;3.45;;;3.15;;
46084;SDS011;31823;47.032;8.310;2022-08-01T09:02:06;4.57;;;3.03;;
46084;SDS011;31823;47.032;8.310;2022-08-01T09:04:34;3.95;;;3.13;;
46084;SDS011;31823;47.032;8.310;2022-08-01T09:07:00;3.95;;;3.58;;
46084;SDS011;31823;47.032;8.310;2022-08-01T09:09:28;4.53;;;3.35;;
46084;SDS011;31823;47.032;8.310;2022-08-01T09:11:54;8.52;;;3.90;;
46084;SDS011;31823;47.032;8.310;2022-08-01T09:14:21;4.05;;;3.65;;
46084;SDS011;31823;47.032;8.310;2022-08-01T09:16:59;3.60;;;3.30;;
46084;SDS011;31823;47.032;8.310;2022-08-01T09:19:34;3.92;;;3.53;;
46084;SDS011;31823;47.032;8.310;2022-08-01T09:22:11;22.33;;;17.00;;
46084;SDS011;31823;47.032;8.310;2022-08-01T09:24:39;6.75;;;4.05;;
46084;SDS011;31823;47.032;8.310;2022-08-01T09:27:16;4.10;;;3.45;;
46084;SDS011;31823;47.032;8.310;2022-08-01T09:29:43;4.68;;;3.67;;
46084;SDS011;31823;47.032;8.310;2022-08-01T09:32:09;7.78;;;3.30;;
46084;SDS011;31823;47.032;8.310;2022-08-01T09:34:35;3.55;;;3.25;;
46084;SDS011;31823;47.032;8.310;2022-08-01T09:37:01;4.07;;;3.45;;
46084;SDS011;31823;47.032;8.310;2022-08-01T09:42:03;5.10;;;3.28;;
46084;SDS011;31823;47.032;8.310;2022-08-01T09:44:48;3.70;;;3.00;;
46084;SDS011;31823;47.032;8.310;2022-08-01T09:47:14;3.45;;;3.15;;
46084;SDS011;31823;47.032;8.310;2022-08-01T09:49:43;3.28;;;2.97;;
46084;SDS011;31823;47.032;8.310;2022-08-01T09:52:11;3.65;;;3.10;;
46084;SDS011;31823;47.032;8.310;2022-08-01T09:54:39;3.58;;;3.22;;
46084;SDS011;31823;47.032;8.310;2022-08-01T09:59:38;4.85;;;3.38;;
46084;SDS011;31823;47.032;8.310;2022-08-01T10:02:07;3.28;;;2.97;;
46084;SDS011;31823;47.032;8.310;2022-08-01T10:04:35;7.00;;;2.70;;
46084;SDS011;31823;47.032;8.310;2022-08-01T10:07:05;2.70;;;2.50;;
46084;SDS011;31823;47.032;8.310;2022-08-01T10:09:33;3.08;;;2.78;;
46084;SDS011;31823;47.032;8.310;2022-08-01T10:12:01;3.20;;;2.90;;
46084;SDS011;31823;47.032;8.310;2022-08-01T10:14:28;4.60;;;3.03;;
46084;SDS011;31823;47.032;8.310;2022-08-01T10:16:55;3.05;;;2.85;;
46084;SDS011;31823;47.032;8.310;2022-08-01T10:19:23;3.33;;;2.85;;
46084;SDS011;31823;47.032;8.310;2022-08-01T10:21:51;3.30;;;2.70;;
46084;SDS011;31823;47.032;8.310;2022-08-01T10:24:19;3.00;;;2.78;;
46084;SDS011;31823;47.032;8.310;2022-08-01T10:26:47;2.88;;;2.50;;
46084;SDS011;31823;47.032;8.310;2022-08-01T10:29:16;4.15;;;2.65;;
46084;SDS011;31823;47.032;8.310;2022-08-01T10:31:45;4.50;;;3.63;;
46084;SDS011;31823;47.032;8.310;2022-08-01T10:34:12;3.03;;;2.70;;
46084;SDS011;31823;47.032;8.310;2022-08-01T10:36:47;3.33;;;3.00;;
46084;SDS011;31823;47.032;8.310;2022-08-01T10:39:14;5.28;;;2.58;;
46084;SDS011;31823;47.032;8.310;2022-08-01T10:41:43;3.10;;;2.90;;
46084;SDS011;31823;47.032;8.310;2022-08-01T10:44:10;4.13;;;2.20;;
46084;SDS011;31823;47.032;8.310;2022-08-01T10:46:39;2.40;;;2.03;;
46084;SDS011;31823;47.032;8.310;2022-08-01T10:49:13;2.42;;;2.22;;
46084;SDS011;31823;47.032;8.310;2022-08-01T10:51:41;2.42;;;2.22;;
46084;SDS011;31823;47.032;8.310;2022-08-01T10:54:09;3.97;;;2.75;;
46084;SDS011;31823;47.032;8.310;2022-08-01T10:56:53;4.80;;;2.78;;
46084;SDS011;31823;47.032;8.310;2022-08-01T10:59:25;3.72;;;2.97;;
46084;SDS011;31823;47.032;8.310;2022-08-01T11:01:59;3.22;;;2.80;;
46084;SDS011;31823;47.032;8.310;2022-08-01T11:04:34;3.03;;;2.72;;
46084;SDS011;31823;47.032;8.310;2022-08-01T11:07:07;3.55;;;2.85;;
46084;SDS011;31823;47.032;8.310;2022-08-01T11:09:45;2.60;;;2.40;;
46084;SDS011;31823;47.032;8.310;2022-08-01T11:12:16;3.75;;;2.38;;
46084;SDS011;31823;47.032;8.310;2022-08-01T11:17:34;3.13;;;2.83;;
46084;SDS011;31823;47.032;8.310;2022-08-01T11:30:45;3.55;;;2.33;;
46084;SDS011;31823;47.032;8.310;2022-08-01T11:33:13;3.78;;;2.10;;
46084;SDS011;31823;47.032;8.310;2022-08-01T11:38:38;2.60;;;2.40;;
46084;SDS011;31823;47.032;8.310;2022-08-01T11:41:13;2.83;;;2.53;;
46084;SDS011;31823;47.032;8.310;2022-08-01T11:54:34;2.38;;;2.17;;
46084;SDS011;31823;47.032;8.310;2022-08-01T11:57:01;3.03;;;2.60;;
46084;SDS011;31823;47.032;8.310;2022-08-01T11:59:35;3.00;;;2.70;;
46084;SDS011;31823;47.032;8.310;2022-08-01T12:02:46;3.17;;;2.80;;
46084;SDS011;31823;47.032;8.310;2022-08-01T12:05:06;3.30;;;2.05;;
46084;SDS011;31823;47.032;8.310;2022-08-01T12:07:33;2.97;;;2.67;;
46084;SDS011;31823;47.032;8.310;2022-08-01T12:10:13;3.00;;;2.60;;
46084;SDS011;31823;47.032;8.310;2022-08-01T12:12:45;2.88;;;2.67;;
46084;SDS011;31823;47.032;8.310;2022-08-01T12:15:16;4.30;;;2.67;;
46084;SDS011;31823;47.032;8.310;2022-08-01T12:17:48;2.58;;;2.38;;
46084;SDS011;31823;47.032;8.310;2022-08-01T12:20:16;4.05;;;2.60;;
46084;SDS011;31823;47.032;8.310;2022-08-01T12:22:45;2.58;;;2.38;;
46084;SDS011;31823;47.032;8.310;2022-08-01T12:25:12;3.38;;;2.80;;
46084;SDS011;31823;47.032;8.310;2022-08-01T12:27:43;2.90;;;2.70;;
46084;SDS011;31823;47.032;8.310;2022-08-01T12:30:11;3.38;;;2.22;;
46084;SDS011;31823;47.032;8.310;2022-08-01T12:32:50;3.42;;;2.97;;
46084;SDS011;31823;47.032;8.310;2022-08-01T12:35:18;2.90;;;2.60;;
46084;SDS011;31823;47.032;8.310;2022-08-01T12:37:48;2.45;;;2.25;;
46084;SDS011;31823;47.032;8.310;2022-08-01T12:40:25;3.13;;;2.20;;
46084;SDS011;31823;47.032;8.310;2022-08-01T12:42:54;2.60;;;2.40;;
46084;SDS011;31823;47.032;8.310;2022-08-01T12:45:25;3.35;;;3.05;;
46084;SDS011;31823;47.032;8.310;2022-08-01T12:47:57;3.70;;;2.58;;
46084;SDS011;31823;47.032;8.310;2022-08-01T12:50:25;3.17;;;2.70;;
46084;SDS011;31823;47.032;8.310;2022-08-01T12:52:54;3.17;;;2.50;;
46084;SDS011;31823;47.032;8.310;2022-08-01T12:55:21;2.97;;;2.60;;
46084;SDS011;31823;47.032;8.310;2022-08-01T12:58:10;3.83;;;2.50;;
46084;SDS011;31823;47.032;8.310;2022-08-01T13:00:39;2.88;;;2.50;;
46084;SDS011;31823;47.032;8.310;2022-08-01T13:03:12;3.22;;;2.15;;
46084;SDS011;31823;47.032;8.310;2022-08-01T13:05:47;2.42;;;2.08;;
46084;SDS011;31823;47.032;8.310;2022-08-01T13:08:26;4.00;;;2.25;;
46084;SDS011;31823;47.032;8.310;2022-08-01T13:11:02;4.80;;;2.40;;
46084;SDS011;31823;47.032;8.310;2022-08-01T13:13:46;6.45;;;2.55;;
46084;SDS011;31823;47.032;8.310;2022-08-01T13:16:13;3.72;;;2.28;;
46084;SDS011;31823;47.032;8.310;2022-08-01T13:18:53;2.50;;;2.30;;
46084;SDS011;31823;47.032;8.310;2022-08-01T13:21:30;2.10;;;1.90;;
46084;SDS011;31823;47.032;8.310;2022-08-01T13:29:04;2.30;;;2.10;;
46084;SDS011;31823;47.032;8.310;2022-08-01T13:31:34;2.30;;;2.10;;
46084;SDS011;31823;47.032;8.310;2022-08-01T13:34:01;2.30;;;2.10;;
46084;SDS011;31823;47.032;8.310;2022-08-01T13:36:27;4.20;;;2.42;;
46084;SDS011;31823;47.032;8.310;2022-08-01T13:38:54;2.08;;;1.88;;
46084;SDS011;31823;47.032;8.310;2022-08-01T13:41:38;2.83;;;1.80;;
46084;SDS011;31823;47.032;8.310;2022-08-01T13:44:04;2.20;;;1.80;;
46084;SDS011;31823;47.032;8.310;2022-08-01T13:46:30;4.32;;;1.80;;
46084;SDS011;31823;47.032;8.310;2022-08-01T13:48:56;3.70;;;1.85;;
46084;SDS011;31823;47.032;8.310;2022-08-01T13:51:22;2.00;;;1.80;;
46084;SDS011;31823;47.032;8.310;2022-08-01T13:53:48;2.40;;;2.00;;
46084;SDS011;31823;47.032;8.310;2022-08-01T13:56:13;2.20;;;1.98;;
46084;SDS011;31823;47.032;8.310;2022-08-01T13:58:41;1.85;;;1.50;;
46084;SDS011;31823;47.032;8.310;2022-08-01T14:01:06;4.45;;;1.85;;
46084;SDS011;31823;47.032;8.310;2022-08-01T14:03:32;2.88;;;1.80;;
46084;SDS011;31823;47.032;8.310;2022-08-01T14:05:58;2.25;;;1.88;;
46084;SDS011;31823;47.032;8.310;2022-08-01T14:08:24;2.03;;;1.80;;
46084;SDS011;31823;47.032;8.310;2022-08-01T14:10:49;1.98;;;1.55;;
46084;SDS011;31823;47.032;8.310;2022-08-01T14:13:16;1.50;;;1.40;;
46084;SDS011;31823;47.032;8.310;2022-08-01T14:15:42;3.28;;;1.60;;
46084;SDS011;31823;47.032;8.310;2022-08-01T14:18:08;2.58;;;1.40;;
46084;SDS011;31823;47.032;8.310;2022-08-01T14:20:34;1.55;;;1.42;;
46084;SDS011;31823;47.032;8.310;2022-08-01T14:23:02;3.97;;;1.33;;
46084;SDS011;31823;47.032;8.310;2022-08-01T14:25:27;1.83;;;1.45;;
46084;SDS011;31823;47.032;8.310;2022-08-01T14:27:53;3.50;;;1.27;;
46084;SDS011;31823;47.032;8.310;2022-08-01T14:30:19;1.50;;;1.40;;
46084;SDS011;31823;47.032;8.310;2022-08-01T14:32:45;1.83;;;1.23;;
46084;SDS011;31823;47.032;8.310;2022-08-01T14:35:11;1.45;;;1.35;;
46084;SDS011;31823;47.032;8.310;2022-08-01T14:37:36;1.95;;;1.30;;
46084;SDS011;31823;47.032;8.310;2022-08-01T14:40:02;1.67;;;1.35;;
46084;SDS011;31823;47.032;8.310;2022-08-01T14:42:32;2.17;;;1.60;;
46084;SDS011;31823;47.032;8.310;2022-08-01T14:44:58;2.05;;;1.30;;
46084;SDS011;31823;47.032;8.310;2022-08-01T14:47:24;1.58;;;1.48;;
46084;SDS011;31823;47.032;8.310;2022-08-01T14:49:50;3.65;;;1.45;;
46084;SDS011;31823;47.032;8.310;2022-08-01T14:52:16;1.48;;;1.38;;
46084;SDS011;31823;47.032;8.310;2022-08-01T14:54:42;1.05;;;1.02;;
46084;SDS011;31823;47.032;8.310;2022-08-01T14:57:08;2.05;;;1.17;;
46084;SDS011;31823;47.032;8.310;2022-08-01T14:59:33;1.98;;;1.58;;
46084;SDS011;31823;47.032;8.310;2022-08-01T15:02:00;2.58;;;1.38;;
46084;SDS011;31823;47.032;8.310;2022-08-01T15:04:25;3.63;;;1.33;;
46084;SDS011;31823;47.032;8.310;2022-08-01T15:06:51;2.35;;;1.17;;
46084;SDS011;31823;47.032;8.310;2022-08-01T15:09:17;2.42;;;1.45;;
46084;SDS011;31823;47.032;8.310;2022-08-01T15:11:42;1.75;;;1.55;;
46084;SDS011;31823;47.032;8.310;2022-08-01T15:14:08;1.58;;;1.25;;
46084;SDS011;31823;47.032;8.310;2022-08-01T15:16:52;2.65;;;1.23;;
46084;SDS011;31823;47.032;8.310;2022-08-01T15:19:18;1.40;;;1.30;;
46084;SDS011;31823;47.032;8.310;2022-08-01T15:21:44;2.78;;;1.52;;
46084;SDS011;31823;47.032;8.310;2022-08-01T15:24:09;1.48;;;1.38;;
46084;SDS011;31823;47.032;8.310;2022-08-01T15:26:35;1.60;;;1.40;;
46084;SDS011;31823;47.032;8.310;2022-08-01T15:29:01;1.95;;;1.48;;
46084;SDS011;31823;47.032;8.310;2022-08-01T15:31:26;1.80;;;1.27;;
46084;SDS011;31823;47.032;8.310;2022-08-01T15:33:52;4.38;;;1.73;;
46084;SDS011;31823;47.032;8.310;2022-08-01T15:36:17;2.10;;;1.90;;
46084;SDS011;31823;47.032;8.310;2022-08-01T15:38:43;2.20;;;1.63;;